Time;durP1;ratioP1;P1;durP2;ratioP2;P2;SDS_P1;SDS_P2;PMS_P1;PMS_P2;Temp;Humidity;BMP_temperature;BMP_pressure;BME280_temperature;BME280_humidity;BME280_pressure;Samples;Min_cycle;Max_cycle;Signal;HPM_P1;HPM_P2
2023/09/12 00:01:06;;;;;;;17.70;15.05;;;;;;;;;;5001397;28;20063;-74
2023/09/12 00:03:33;;;;;;;17.40;15.02;;;;;;;;;;4997195;28;20038;-74
2023/09/12 00:06:01;;;;;;;17.40;15.50;;;;;;;;;;5004338;28;20605;-74
2023/09/12 00:08:27;;;;;;;18.20;14.13;;;;;;;;;;4985956;28;20045;-74
2023/09/12 00:11:04;;;;;;;17.83;15.00;;;;;;;;;;5002470;28;20034;-74
2023/09/12 00:13:30;;;;;;;18.60;15.25;;;;;;;;;;5001164;28;20033;-74
2023/09/12 00:15:57;;;;;;;18.30;15.02;;;;;;;;;;5001656;28;20429;-74
2023/09/12 00:18:22;;;;;;;18.42;15.18;;;;;;;;;;4996218;28;20530;-74
2023/09/12 00:20:48;;;;;;;22.20;15.75;;;;;;;;;;5001702;28;20049;-74
2023/09/12 00:23:13;;;;;;;16.73;15.00;;;;;;;;;;5000028;28;20053;-74
2023/09/12 00:25:39;;;;;;;16.95;15.18;;;;;;;;;;5003010;28;20045;-74
2023/09/12 00:28:05;;;;;;;22.23;16.05;;;;;;;;;;4999682;28;20041;-74
2023/09/12 00:30:30;;;;;;;18.55;15.45;;;;;;;;;;5014684;28;20053;-74
2023/09/12 00:32:56;;;;;;;16.98;15.38;;;;;;;;;;4997657;28;20125;-74
2023/09/12 00:35:22;;;;;;;18.73;15.20;;;;;;;;;;5006136;28;20117;-74
2023/09/12 00:37:48;;;;;;;18.52;15.90;;;;;;;;;;5012364;28;20044;-74
2023/09/12 00:40:13;;;;;;;18.90;15.07;;;;;;;;;;5003637;28;20091;-73
2023/09/12 00:42:39;;;;;;;20.08;15.35;;;;;;;;;;5013022;28;20053;-74
2023/09/12 00:45:04;;;;;;;18.88;15.50;;;;;;;;;;5014006;28;20034;-74
2023/09/12 00:47:31;;;;;;;17.63;15.63;;;;;;;;;;4999308;28;20133;-74
2023/09/12 00:49:58;;;;;;;15.68;14.15;;;;;;;;;;4999398;28;20038;-74
2023/09/12 00:52:26;;;;;;;19.90;14.23;;;;;;;;;;4992651;28;20103;-74
2023/09/12 00:54:52;;;;;;;18.77;15.52;;;;;;;;;;5001674;28;20044;-74
2023/09/12 00:57:18;;;;;;;18.95;15.43;;;;;;;;;;5011899;28;20044;-73
2023/09/12 00:59:44;;;;;;;16.80;15.15;;;;;;;;;;5000441;28;20045;-74
2023/09/12 01:02:10;;;;;;;17.95;15.82;;;;;;;;;;5018209;28;20049;-74
2023/09/12 01:04:36;;;;;;;22.70;14.68;;;;;;;;;;4997220;28;20103;-74
2023/09/12 01:07:04;;;;;;;21.65;15.40;;;;;;;;;;5002314;28;20057;-73
2023/09/12 01:09:31;;;;;;;16.63;14.80;;;;;;;;;;5017070;28;20116;-73
2023/09/12 01:11:56;;;;;;;16.88;13.93;;;;;;;;;;5017527;28;20472;-74
2023/09/12 01:14:22;;;;;;;24.23;15.07;;;;;;;;;;5017476;28;20038;-74
2023/09/12 01:16:48;;;;;;;20.30;15.30;;;;;;;;;;5010901;28;20046;-74
2023/09/12 01:19:15;;;;;;;20.15;15.13;;;;;;;;;;5003001;28;20417;-74
2023/09/12 01:21:58;;;;;;;16.83;15.02;;;;;;;;;;5011243;28;20529;-74
2023/09/12 01:24:59;;;;;;;18.73;14.95;;;;;;;;;;5003512;28;20093;-74
2023/09/12 01:27:30;;;;;;;21.05;15.57;;;;;;;;;;5000517;28;20045;-74
2023/09/12 01:29:59;;;;;;;25.75;16.33;;;;;;;;;;5009223;28;20038;-74
2023/09/12 01:32:26;;;;;;;24.08;16.40;;;;;;;;;;4994152;28;20749;-74
2023/09/12 01:34:52;;;;;;;21.58;16.70;;;;;;;;;;5002781;28;20117;-74
2023/09/12 01:37:17;;;;;;;24.50;17.70;;;;;;;;;;5017270;28;20116;-74
2023/09/12 01:39:43;;;;;;;19.15;16.77;;;;;;;;;;4998633;28;20044;-74
2023/09/12 01:42:14;;;;;;;22.65;16.13;;;;;;;;;;5012803;28;20049;-74
2023/09/12 01:44:43;;;;;;;17.38;15.55;;;;;;;;;;5001327;28;20104;-74
2023/09/12 01:47:10;;;;;;;20.75;15.98;;;;;;;;;;4995022;28;20042;-74
2023/09/12 01:49:39;;;;;;;21.55;15.63;;;;;;;;;;5011661;28;20041;-74
2023/09/12 01:52:05;;;;;;;17.63;15.43;;;;;;;;;;5003001;28;20054;-74
2023/09/12 01:54:32;;;;;;;18.13;15.30;;;;;;;;;;4999077;28;20114;-74
2023/09/12 01:56:59;;;;;;;19.27;15.57;;;;;;;;;;5016012;28;20042;-74
2023/09/12 01:59:24;;;;;;;17.40;15.68;;;;;;;;;;5017717;28;20061;-74
2023/09/12 02:01:51;;;;;;;20.73;16.42;;;;;;;;;;5016272;28;20665;-74
2023/09/12 02:04:16;;;;;;;16.70;15.10;;;;;;;;;;5007524;28;20041;-74
2023/09/12 02:06:42;;;;;;;20.30;15.82;;;;;;;;;;5016480;28;20033;-74
2023/09/12 02:09:07;;;;;;;17.75;15.82;;;;;;;;;;5004360;28;20045;-74
2023/09/12 02:11:33;;;;;;;16.65;15.07;;;;;;;;;;5002531;28;20041;-74
2023/09/12 02:13:58;;;;;;;20.33;16.92;;;;;;;;;;4999251;28;20084;-74
2023/09/12 02:16:24;;;;;;;17.92;15.13;;;;;;;;;;5002034;28;20045;-74
2023/09/12 02:18:50;;;;;;;22.40;16.73;;;;;;;;;;5016427;28;20528;-74
2023/09/12 02:21:15;;;;;;;23.27;16.75;;;;;;;;;;5016994;28;20494;-74
2023/09/12 02:23:42;;;;;;;19.80;17.45;;;;;;;;;;5014649;28;20042;-73
2023/09/12 02:26:07;;;;;;;18.92;16.25;;;;;;;;;;5000504;28;20045;-74
2023/09/12 02:28:33;;;;;;;19.70;16.88;;;;;;;;;;4999507;28;20029;-74
2023/09/12 02:30:59;;;;;;;23.70;16.40;;;;;;;;;;5021527;28;20057;-74
2023/09/12 02:33:24;;;;;;;20.83;17.10;;;;;;;;;;5013240;28;20117;-74
2023/09/12 02:35:50;;;;;;;22.73;16.85;;;;;;;;;;4993495;28;20084;-74
2023/09/12 02:38:17;;;;;;;19.42;16.63;;;;;;;;;;5002411;28;20114;-74
2023/09/12 02:40:42;;;;;;;22.75;16.33;;;;;;;;;;5015980;28;20033;-74
2023/09/12 02:43:08;;;;;;;20.83;16.30;;;;;;;;;;5003756;28;20544;-73
2023/09/12 02:45:34;;;;;;;20.60;16.38;;;;;;;;;;4998441;28;20998;-73
2023/09/12 02:47:59;;;;;;;21.88;17.10;;;;;;;;;;4999293;28;20030;-74
2023/09/12 02:50:25;;;;;;;24.67;16.70;;;;;;;;;;5003491;28;20096;-74
2023/09/12 02:52:50;;;;;;;17.95;15.93;;;;;;;;;;5001860;28;20037;-73
2023/09/12 02:55:16;;;;;;;24.55;18.08;;;;;;;;;;4998483;28;20528;-74
2023/09/12 02:57:42;;;;;;;18.17;16.30;;;;;;;;;;4983230;28;20065;-74
2023/09/12 03:00:09;;;;;;;20.65;16.05;;;;;;;;;;5021900;28;20061;-74
2023/09/12 03:02:35;;;;;;;16.73;14.73;;;;;;;;;;5003283;28;20410;-74
2023/09/12 03:05:03;;;;;;;23.33;17.52;;;;;;;;;;4985304;28;20082;-73
2023/09/12 03:07:30;;;;;;;21.63;16.13;;;;;;;;;;5020789;28;20025;-74
2023/09/12 03:09:56;;;;;;;18.90;15.50;;;;;;;;;;5019495;28;20501;-74
2023/09/12 03:12:21;;;;;;;18.40;16.30;;;;;;;;;;5017579;28;20121;-74
2023/09/12 03:14:47;;;;;;;18.52;16.13;;;;;;;;;;5003190;28;20081;-74
2023/09/12 03:17:12;;;;;;;17.40;15.60;;;;;;;;;;5016099;28;20040;-74
2023/09/12 03:19:38;;;;;;;18.80;15.70;;;;;;;;;;5003398;28;20080;-74
2023/09/12 03:22:04;;;;;;;19.88;15.15;;;;;;;;;;5021441;28;20057;-73
2023/09/12 03:24:30;;;;;;;22.35;16.15;;;;;;;;;;5006197;28;20420;-74
2023/09/12 03:26:56;;;;;;;22.85;15.55;;;;;;;;;;5002487;28;20517;-74
2023/09/12 03:29:22;;;;;;;18.58;16.02;;;;;;;;;;5001212;28;20042;-73
2023/09/12 03:31:48;;;;;;;18.35;15.85;;;;;;;;;;5018055;28;20037;-75
2023/09/12 03:34:14;;;;;;;16.40;14.75;;;;;;;;;;5001752;28;20034;-74
2023/09/12 03:36:40;;;;;;;22.10;15.85;;;;;;;;;;5002059;28;20041;-74
2023/09/12 03:39:08;;;;;;;20.88;16.25;;;;;;;;;;4983752;28;20077;-74
2023/09/12 03:41:34;;;;;;;19.58;15.70;;;;;;;;;;5018171;28;20133;-74
2023/09/12 03:44:00;;;;;;;19.25;16.38;;;;;;;;;;5000113;28;20035;-74
2023/09/12 03:46:26;;;;;;;21.95;16.10;;;;;;;;;;5019457;28;20041;-74
2023/09/12 03:48:51;;;;;;;18.67;16.30;;;;;;;;;;5018324;28;20068;-74
2023/09/12 03:51:17;;;;;;;22.02;16.58;;;;;;;;;;5018098;28;20038;-73
2023/09/12 03:53:43;;;;;;;20.25;15.90;;;;;;;;;;5011158;28;20037;-74
2023/09/12 03:56:12;;;;;;;22.05;16.98;;;;;;;;;;5002406;28;20041;-74
2023/09/12 03:58:39;;;;;;;21.65;17.15;;;;;;;;;;5001692;28;20041;-74
2023/09/12 04:01:05;;;;;;;21.58;16.48;;;;;;;;;;5022224;28;20044;-74
2023/09/12 04:03:30;;;;;;;20.30;15.65;;;;;;;;;;5003085;28;20037;-74
2023/09/12 04:05:56;;;;;;;23.70;18.05;;;;;;;;;;5018896;28;20038;-74
2023/09/12 04:08:22;;;;;;;21.70;17.33;;;;;;;;;;5007140;28;20084;-73
2023/09/12 04:10:47;;;;;;;23.17;17.15;;;;;;;;;;5004205;28;20186;-74
2023/09/12 04:13:13;;;;;;;22.75;16.95;;;;;;;;;;5005547;28;20038;-74
2023/09/12 04:15:38;;;;;;;21.15;17.48;;;;;;;;;;5001200;28;20486;-73
2023/09/12 04:18:04;;;;;;;22.77;17.77;;;;;;;;;;5015209;28;20116;-74
2023/09/12 04:20:30;;;;;;;26.20;17.77;;;;;;;;;;5020955;28;20048;-68
2023/09/12 04:22:55;;;;;;;20.77;17.95;;;;;;;;;;4997610;28;20033;-68
2023/09/12 04:25:21;;;;;;;25.63;17.27;;;;;;;;;;5013544;28;20683;-68
2023/09/12 04:27:47;;;;;;;18.65;16.50;;;;;;;;;;5005295;28;20130;-68
2023/09/12 04:30:12;;;;;;;19.92;16.13;;;;;;;;;;5001290;28;20641;-68
2023/09/12 04:32:38;;;;;;;17.38;15.63;;;;;;;;;;4999867;28;20045;-68
2023/09/12 04:35:04;;;;;;;17.73;16.02;;;;;;;;;;5014061;28;20096;-69
2023/09/12 04:37:30;;;;;;;20.83;16.45;;;;;;;;;;5007741;28;20090;-68
2023/09/12 04:39:56;;;;;;;20.45;17.05;;;;;;;;;;5019136;28;20038;-67
2023/09/12 04:42:22;;;;;;;23.13;17.15;;;;;;;;;;4999809;28;20124;-69
2023/09/12 04:44:48;;;;;;;20.83;17.08;;;;;;;;;;4994766;28;20121;-68
2023/09/12 04:47:14;;;;;;;23.33;16.13;;;;;;;;;;5010918;28;20569;-70
2023/09/12 04:49:41;;;;;;;18.45;15.77;;;;;;;;;;5006687;28;20030;-68
2023/09/12 04:52:07;;;;;;;22.33;16.42;;;;;;;;;;4999942;28;20121;-68
2023/09/12 04:54:33;;;;;;;18.38;16.45;;;;;;;;;;5013503;28;20113;-67
2023/09/12 04:56:59;;;;;;;18.80;16.63;;;;;;;;;;5000980;28;20044;-68
2023/09/12 04:59:25;;;;;;;25.02;17.35;;;;;;;;;;4999218;28;20042;-68
2023/09/12 05:01:51;;;;;;;19.60;15.88;;;;;;;;;;4998935;28;20038;-68
2023/09/12 05:04:16;;;;;;;18.95;17.02;;;;;;;;;;5020515;28;20525;-68
2023/09/12 05:06:42;;;;;;;25.85;16.88;;;;;;;;;;5016830;28;20064;-68
2023/09/12 05:09:09;;;;;;;20.38;16.08;;;;;;;;;;5013369;28;20494;-69
2023/09/12 05:11:35;;;;;;;19.48;16.17;;;;;;;;;;5019646;28;20420;-68
2023/09/12 05:14:03;;;;;;;17.58;15.88;;;;;;;;;;5000562;28;20043;-68
2023/09/12 05:16:29;;;;;;;23.85;16.48;;;;;;;;;;5017103;28;20052;-68
2023/09/12 05:18:55;;;;;;;16.65;14.95;;;;;;;;;;5000410;28;20042;-68
2023/09/12 05:21:21;;;;;;;20.23;13.90;;;;;;;;;;5019108;28;20042;-67
2023/09/12 05:23:48;;;;;;;19.13;15.40;;;;;;;;;;5002138;28;20087;-68
2023/09/12 05:26:13;;;;;;;21.13;16.60;;;;;;;;;;5014545;28;20038;-68
2023/09/12 05:28:39;;;;;;;23.77;16.45;;;;;;;;;;5000843;28;20041;-68
2023/09/12 05:31:04;;;;;;;17.52;15.73;;;;;;;;;;5004312;28;20069;-68
2023/09/12 05:33:31;;;;;;;16.95;15.35;;;;;;;;;;5017175;28;20065;-68
2023/09/12 05:35:57;;;;;;;20.50;15.75;;;;;;;;;;5014946;28;20666;-68
2023/09/12 05:38:23;;;;;;;19.13;14.93;;;;;;;;;;5018313;28;20038;-68
2023/09/12 05:40:51;;;;;;;18.25;15.52;;;;;;;;;;4999179;28;20406;-68
2023/09/12 05:43:17;;;;;;;18.08;15.70;;;;;;;;;;5014030;28;20069;-68
2023/09/12 05:45:44;;;;;;;17.83;15.80;;;;;;;;;;5000459;28;20037;-69
2023/09/12 05:48:09;;;;;;;18.50;15.05;;;;;;;;;;4993091;28;20042;-68
2023/09/12 05:50:39;;;;;;;19.42;15.98;;;;;;;;;;5002822;28;20586;-68
2023/09/12 05:53:05;;;;;;;18.55;15.30;;;;;;;;;;5000688;28;20109;-68
2023/09/12 05:55:30;;;;;;;19.95;15.07;;;;;;;;;;5001589;28;20112;-68
2023/09/12 05:57:56;;;;;;;17.17;15.27;;;;;;;;;;4996746;28;20124;-69
2023/09/12 06:00:21;;;;;;;17.90;15.00;;;;;;;;;;4996675;28;20069;-68
2023/09/12 06:02:48;;;;;;;19.05;15.45;;;;;;;;;;5000190;28;20048;-69
2023/09/12 06:05:14;;;;;;;16.92;15.15;;;;;;;;;;4996052;28;20042;-69
2023/09/12 06:07:40;;;;;;;17.52;15.13;;;;;;;;;;4979448;28;20490;-69
2023/09/12 06:10:07;;;;;;;21.38;14.95;;;;;;;;;;4991792;28;20054;-68
2023/09/12 06:12:35;;;;;;;17.60;14.75;;;;;;;;;;4993371;28;20508;-70
2023/09/12 06:15:04;;;;;;;15.93;14.35;;;;;;;;;;4989787;28;20038;-70
2023/09/12 06:17:31;;;;;;;16.23;14.00;;;;;;;;;;4994063;28;20045;-71
2023/09/12 06:19:57;;;;;;;17.42;14.57;;;;;;;;;;4997091;28;20126;-71
2023/09/12 06:22:24;;;;;;;18.10;14.90;;;;;;;;;;4992071;28;20443;-72
2023/09/12 06:24:50;;;;;;;15.75;13.80;;;;;;;;;;4985983;28;20211;-71
2023/09/12 06:27:18;;;;;;;16.02;14.38;;;;;;;;;;4992746;28;20938;-72
2023/09/12 06:29:50;;;;;;;16.08;14.35;;;;;;;;;;4987658;28;20106;-72
2023/09/12 06:32:17;;;;;;;17.38;13.52;;;;;;;;;;4987930;28;20120;-74
2023/09/12 06:34:43;;;;;;;14.82;13.32;;;;;;;;;;4990535;28;20493;-73
2023/09/12 06:37:11;;;;;;;15.70;13.80;;;;;;;;;;4986151;28;20046;-71
2023/09/12 06:39:36;;;;;;;16.45;14.00;;;;;;;;;;4988155;28;20034;-72
2023/09/12 06:42:02;;;;;;;14.98;13.38;;;;;;;;;;4988486;28;20064;-72
2023/09/12 06:44:28;;;;;;;15.77;14.07;;;;;;;;;;5007085;28;20205;-72
2023/09/12 06:46:53;;;;;;;16.73;13.75;;;;;;;;;;4992380;28;20734;-72
2023/09/12 06:49:19;;;;;;;15.85;13.48;;;;;;;;;;4997159;28;20068;-72
2023/09/12 06:51:44;;;;;;;16.50;13.65;;;;;;;;;;4992316;28;20029;-71
2023/09/12 06:54:10;;;;;;;20.52;13.10;;;;;;;;;;5006356;28;20045;-72
2023/09/12 06:56:37;;;;;;;17.75;13.27;;;;;;;;;;4996803;28;20037;-73
2023/09/12 06:59:04;;;;;;;17.35;12.57;;;;;;;;;;4988846;28;20038;-73
2023/09/12 07:01:30;;;;;;;14.50;12.98;;;;;;;;;;4985815;28;20034;-72
2023/09/12 07:03:56;;;;;;;23.42;13.38;;;;;;;;;;4993171;28;20044;-72
2023/09/12 07:06:22;;;;;;;17.92;13.73;;;;;;;;;;4992163;28;20802;-73
2023/09/12 07:08:48;;;;;;;17.63;13.40;;;;;;;;;;4989349;28;20497;-74
2023/09/12 07:11:14;;;;;;;17.42;13.25;;;;;;;;;;4994596;28;20026;-72
2023/09/12 07:13:39;;;;;;;17.98;13.25;;;;;;;;;;4989981;28;20565;-73
2023/09/12 07:16:05;;;;;;;19.40;13.15;;;;;;;;;;4994091;28;20077;-73
2023/09/12 07:18:34;;;;;;;15.88;13.18;;;;;;;;;;4991577;28;20030;-73
2023/09/12 07:21:00;;;;;;;14.25;12.75;;;;;;;;;;4991461;28;20121;-74
2023/09/12 07:23:27;;;;;;;16.35;13.63;;;;;;;;;;4991404;28;20603;-75
2023/09/12 07:25:55;;;;;;;17.35;13.27;;;;;;;;;;4991090;28;20536;-72
2023/09/12 07:28:21;;;;;;;15.68;13.23;;;;;;;;;;4988159;28;20026;-72
2023/09/12 07:30:46;;;;;;;16.23;13.93;;;;;;;;;;4989753;28;20040;-73
2023/09/12 07:33:12;;;;;;;16.50;12.82;;;;;;;;;;4993895;28;20096;-73
2023/09/12 07:35:37;;;;;;;14.50;12.63;;;;;;;;;;4990738;28;20038;-73
2023/09/12 07:38:03;;;;;;;13.65;12.25;;;;;;;;;;4988877;28;20048;-73
2023/09/12 07:40:29;;;;;;;20.17;13.25;;;;;;;;;;4991546;28;20582;-73
2023/09/12 07:42:55;;;;;;;17.23;13.90;;;;;;;;;;4990504;28;20128;-72
2023/09/12 07:45:20;;;;;;;16.70;14.38;;;;;;;;;;4984218;28;20141;-73
2023/09/12 07:47:46;;;;;;;20.83;13.30;;;;;;;;;;4995699;28;20120;-73
2023/09/12 07:50:12;;;;;;;15.88;13.65;;;;;;;;;;4987724;28;20076;-73
2023/09/12 07:52:38;;;;;;;16.27;14.52;;;;;;;;;;4987747;28;20029;-73
2023/09/12 07:55:04;;;;;;;18.10;13.85;;;;;;;;;;4983802;28;20069;-72
2023/09/12 07:57:30;;;;;;;18.52;13.80;;;;;;;;;;4986477;28;20173;-72
2023/09/12 07:59:56;;;;;;;19.00;13.43;;;;;;;;;;4984503;28;20034;-73
2023/09/12 08:02:21;;;;;;;16.50;12.95;;;;;;;;;;4988414;28;20038;-73
2023/09/12 08:04:50;;;;;;;19.23;12.43;;;;;;;;;;4991580;28;20940;-74
2023/09/12 08:07:16;;;;;;;17.65;11.98;;;;;;;;;;4989981;28;20913;-73
2023/09/12 08:09:57;;;;;;;24.17;12.20;;;;;;;;;;4994831;28;20045;-72
2023/09/12 08:12:26;;;;;;;13.68;11.90;;;;;;;;;;4989403;28;20038;-74
2023/09/12 08:14:52;;;;;;;16.23;12.40;;;;;;;;;;4989747;28;20048;-73
2023/09/12 08:17:18;;;;;;;13.23;11.82;;;;;;;;;;4987032;28;21374;-75
2023/09/12 08:19:44;;;;;;;16.23;11.48;;;;;;;;;;4989267;28;20037;-74
2023/09/12 08:22:10;;;;;;;15.88;11.77;;;;;;;;;;4990183;28;20045;-74
2023/09/12 08:24:36;;;;;;;12.07;11.00;;;;;;;;;;4993525;28;20379;-74
2023/09/12 08:27:03;;;;;;;13.38;11.25;;;;;;;;;;4994024;28;20046;-74
2023/09/12 08:29:29;;;;;;;14.48;12.85;;;;;;;;;;4995315;28;20053;-74
2023/09/12 08:31:55;;;;;;;13.35;11.68;;;;;;;;;;4989561;28;20074;-74
2023/09/12 08:34:21;;;;;;;12.75;11.30;;;;;;;;;;4993806;28;20424;-74
2023/09/12 08:36:47;;;;;;;12.88;11.57;;;;;;;;;;4993668;28;20044;-75
2023/09/12 08:39:15;;;;;;;14.77;11.55;;;;;;;;;;4993583;28;20046;-75
2023/09/12 08:41:42;;;;;;;21.55;11.82;;;;;;;;;;4990714;28;20065;-75
2023/09/12 08:44:09;;;;;;;14.13;12.27;;;;;;;;;;4991988;28;20466;-75
2023/09/12 08:46:34;;;;;;;18.63;11.93;;;;;;;;;;4989502;28;20798;-74
2023/09/12 08:49:00;;;;;;;15.30;11.90;;;;;;;;;;4994032;28;20069;-75
2023/09/12 08:51:26;;;;;;;15.85;11.60;;;;;;;;;;4996823;28;20076;-75
2023/09/12 08:53:52;;;;;;;18.40;11.30;;;;;;;;;;4994169;28;20033;-75
2023/09/12 08:56:18;;;;;;;14.02;11.18;;;;;;;;;;5008950;28;20037;-75
2023/09/12 08:58:45;;;;;;;12.85;11.50;;;;;;;;;;4993579;28;20041;-75
2023/09/12 09:01:13;;;;;;;12.85;10.95;;;;;;;;;;5005129;28;20157;-75
2023/09/12 09:03:42;;;;;;;12.23;11.20;;;;;;;;;;4989505;28;20045;-73
2023/09/12 09:06:11;;;;;;;;;;;;;;;;;;4993994;28;20029;-72
2023/09/12 09:08:39;;;;;;;19.42;11.60;;;;;;;;;;4989843;28;19940;-74
2023/09/12 09:11:06;;;;;;;12.30;11.10;;;;;;;;;;4990048;28;20044;-74
2023/09/12 09:13:34;;;;;;;13.07;10.88;;;;;;;;;;4994811;28;20046;-73
2023/09/12 09:16:13;;;;;;;;;;;;;;;;;;4992206;28;20040;-74
2023/09/12 09:19:09;;;;;;;13.82;10.18;;;;;;;;;;4987501;28;19936;-73
2023/09/12 09:21:36;;;;;;;13.43;10.85;;;;;;;;;;4990101;28;20084;-74
2023/09/12 09:24:06;;;;;;;12.13;10.63;;;;;;;;;;4984953;28;20042;-73
2023/09/12 09:26:48;;;;;;;12.55;10.65;;;;;;;;;;4993148;28;20375;-73
2023/09/12 09:29:18;;;;;;;11.90;10.32;;;;;;;;;;4988687;28;20033;-72
2023/09/12 09:31:47;;;;;;;12.43;11.15;;;;;;;;;;4987885;28;20042;-72
2023/09/12 09:34:17;;;;;;;14.10;11.30;;;;;;;;;;4984458;28;20494;-73
2023/09/12 09:36:44;;;;;;;12.10;10.57;;;;;;;;;;4987164;28;20042;-73
2023/09/12 09:39:10;;;;;;;12.02;10.90;;;;;;;;;;4990143;28;20116;-73
2023/09/12 09:41:37;;;;;;;14.35;10.70;;;;;;;;;;4980094;28;20038;-74
2023/09/12 09:44:05;;;;;;;11.98;10.65;;;;;;;;;;4983804;28;20665;-73
2023/09/12 09:46:32;;;;;;;13.40;11.32;;;;;;;;;;4986402;28;20141;-73
2023/09/12 09:48:59;;;;;;;11.80;10.32;;;;;;;;;;4985968;28;20109;-74
2023/09/12 09:51:25;;;;;;;14.18;10.25;;;;;;;;;;4990754;28;20904;-74
2023/09/12 09:53:58;;;;;;;12.18;10.48;;;;;;;;;;4986291;28;20030;-73
2023/09/12 09:56:25;;;;;;;16.27;10.63;;;;;;;;;;5008164;28;20053;-73
2023/09/12 09:58:53;;;;;;;16.73;11.00;;;;;;;;;;4988890;28;20121;-73
2023/09/12 10:01:27;;;;;;;12.30;10.00;;;;;;;;;;5003971;28;20660;-73
2023/09/12 10:03:53;;;;;;;12.38;10.82;;;;;;;;;;4990754;28;20117;-73
2023/09/12 10:06:19;;;;;;;13.35;10.90;;;;;;;;;;4989230;28;20045;-73
2023/09/12 10:08:50;;;;;;;14.63;10.90;;;;;;;;;;4988756;28;20030;-73
2023/09/12 10:11:16;;;;;;;14.65;10.77;;;;;;;;;;4986765;28;20030;-74
2023/09/12 10:14:00;;;;;;;11.80;10.60;;;;;;;;;;4983453;28;20040;-73
2023/09/12 10:16:34;;;;;;;13.50;10.50;;;;;;;;;;4985759;28;20037;-74
2023/09/12 10:19:10;;;;;;;11.70;10.05;;;;;;;;;;4986965;28;20077;-74
2023/09/12 10:21:35;;;;;;;11.18;9.90;;;;;;;;;;4990997;28;20038;-73
2023/09/12 10:24:03;;;;;;;15.57;10.40;;;;;;;;;;4984061;28;20046;-73
2023/09/12 10:26:31;;;;;;;13.15;10.65;;;;;;;;;;4996910;28;20037;-74
2023/09/12 10:28:57;;;;;;;12.23;9.98;;;;;;;;;;5011005;28;20032;-73
2023/09/12 10:31:24;;;;;;;13.20;10.30;;;;;;;;;;4994170;28;20528;-72
2023/09/12 10:33:50;;;;;;;13.45;10.52;;;;;;;;;;4990504;28;20041;-73
2023/09/12 10:36:18;;;;;;;12.73;10.93;;;;;;;;;;4990074;28;20042;-73
2023/09/12 10:38:46;;;;;;;11.85;9.73;;;;;;;;;;4991586;28;20045;-73
2023/09/12 10:41:15;;;;;;;15.32;10.70;;;;;;;;;;4989745;28;20046;-75
2023/09/12 10:43:43;;;;;;;11.15;10.00;;;;;;;;;;4990335;28;20038;-75
2023/09/12 10:46:09;;;;;;;10.70;9.50;;;;;;;;;;4987639;28;21095;-73
2023/09/12 10:48:36;;;;;;;11.70;10.50;;;;;;;;;;4992816;28;20040;-75
2023/09/12 10:51:05;;;;;;;12.05;10.77;;;;;;;;;;4990333;28;20058;-74
2023/09/12 10:53:33;;;;;;;11.60;10.35;;;;;;;;;;5007362;28;20044;-74
2023/09/12 10:56:20;;;;;;;11.57;10.38;;;;;;;;;;4991276;28;20072;-74
2023/09/12 10:59:06;;;;;;;15.38;10.43;;;;;;;;;;4989441;28;20132;-75
2023/09/12 11:01:39;;;;;;;11.35;10.18;;;;;;;;;;4990422;28;20575;-73
2023/09/12 11:04:30;;;;;;;15.25;10.73;;;;;;;;;;4988072;28;20033;-73
2023/09/12 11:06:56;;;;;;;11.68;10.45;;;;;;;;;;4984541;28;20666;-73
2023/09/12 11:09:24;;;;;;;11.88;10.77;;;;;;;;;;4992008;28;20120;-74
2023/09/12 11:11:56;;;;;;;15.07;11.47;;;;;;;;;;4993976;28;20433;-73
2023/09/12 11:14:24;;;;;;;11.20;9.88;;;;;;;;;;4993917;28;20073;-74
2023/09/12 11:17:07;;;;;;;16.88;10.68;;;;;;;;;;4993052;28;20033;-73
2023/09/12 11:19:49;;;;;;;13.13;10.32;;;;;;;;;;4992343;28;20037;-74
2023/09/12 11:22:26;;;;;;;11.80;10.10;;;;;;;;;;4985003;28;20034;-74
2023/09/12 11:24:52;;;;;;;10.75;9.68;;;;;;;;;;4987801;28;20045;-75
2023/09/12 11:27:18;;;;;;;11.18;10.10;;;;;;;;;;5007590;28;20552;-74
2023/09/12 11:29:45;;;;;;;15.82;9.82;;;;;;;;;;4989828;28;20044;-74
2023/09/12 11:32:26;;;;;;;12.38;9.43;;;;;;;;;;4991655;28;20026;-73
2023/09/12 11:34:52;;;;;;;11.45;9.30;;;;;;;;;;4995299;28;20036;-73
2023/09/12 11:37:28;;;;;;;13.50;9.68;;;;;;;;;;4991224;28;20034;-72
2023/09/12 11:39:54;;;;;;;13.07;9.52;;;;;;;;;;4991165;28;20076;-74
2023/09/12 11:42:22;;;;;;;12.15;9.38;;;;;;;;;;5004624;28;20120;-74
2023/09/12 11:44:50;;;;;;;12.02;9.52;;;;;;;;;;4989653;28;20135;-74
2023/09/12 11:47:15;;;;;;;16.02;9.45;;;;;;;;;;4985191;28;20152;-75
2023/09/12 11:49:42;;;;;;;11.35;9.65;;;;;;;;;;4992892;28;20555;-73
2023/09/12 11:52:12;;;;;;;11.23;9.35;;;;;;;;;;4986131;28;20049;-75
2023/09/12 11:54:41;;;;;;;13.35;9.68;;;;;;;;;;4990379;28;20618;-73
2023/09/12 11:57:09;;;;;;;10.82;9.82;;;;;;;;;;4989094;28;20033;-72
2023/09/12 11:59:45;;;;;;;12.65;9.70;;;;;;;;;;4990514;28;20804;-72
2023/09/12 12:02:11;;;;;;;17.38;9.63;;;;;;;;;;4984065;28;20782;-72
2023/09/12 12:04:37;;;;;;;10.88;9.88;;;;;;;;;;4986564;28;20038;-72
2023/09/12 12:07:04;;;;;;;11.38;9.90;;;;;;;;;;4984869;28;20042;-73
2023/09/12 12:09:30;;;;;;;13.23;10.98;;;;;;;;;;4987790;28;20033;-72
2023/09/12 12:12:00;;;;;;;10.75;9.65;;;;;;;;;;4985341;28;20116;-73
2023/09/12 12:14:26;;;;;;;10.60;9.70;;;;;;;;;;4985997;28;20044;-71
2023/09/12 12:16:52;;;;;;;10.73;9.73;;;;;;;;;;4992777;28;20041;-72
2023/09/12 12:19:18;;;;;;;12.35;9.85;;;;;;;;;;4989250;28;20109;-72
2023/09/12 12:21:44;;;;;;;10.93;9.75;;;;;;;;;;4988938;28;20655;-73
2023/09/12 12:24:12;;;;;;;10.43;9.40;;;;;;;;;;4995306;28;20038;-73
2023/09/12 12:26:43;;;;;;;10.25;9.30;;;;;;;;;;4992286;28;20041;-73
2023/09/12 12:29:10;;;;;;;10.40;9.50;;;;;;;;;;4987027;28;20330;-72
2023/09/12 12:31:37;;;;;;;10.63;9.52;;;;;;;;;;4994330;28;20620;-72
2023/09/12 12:34:04;;;;;;;12.05;9.38;;;;;;;;;;4994761;28;20042;-72
2023/09/12 12:36:30;;;;;;;11.02;9.93;;;;;;;;;;4991465;28;20362;-72
2023/09/12 12:38:55;;;;;;;10.88;9.82;;;;;;;;;;4994244;28;20905;-71
2023/09/12 12:41:26;;;;;;;11.38;9.90;;;;;;;;;;4993450;28;20029;-72
2023/09/12 12:43:53;;;;;;;11.45;10.25;;;;;;;;;;4991763;28;20120;-74
2023/09/12 12:46:21;;;;;;;12.23;9.70;;;;;;;;;;4992754;28;20041;-73
2023/09/12 12:48:47;;;;;;;10.55;9.52;;;;;;;;;;5008301;28;20029;-72
2023/09/12 12:51:25;;;;;;;10.25;9.25;;;;;;;;;;4991777;28;20042;-73
2023/09/12 12:53:53;;;;;;;;;;;;;;;;;;4992382;28;20653;-73
2023/09/12 12:56:23;;;;;;;10.00;9.10;;;;;;;;;;4992688;28;20022;-74
2023/09/12 12:58:51;;;;;;;10.55;9.50;;;;;;;;;;4991142;28;20096;-74
2023/09/12 13:01:17;;;;;;;11.23;10.05;;;;;;;;;;5007347;28;20540;-72
2023/09/12 13:03:43;;;;;;;10.65;9.73;;;;;;;;;;4996531;28;20379;-73
2023/09/12 13:06:14;;;;;;;13.75;10.30;;;;;;;;;;4997069;28;20048;-75
2023/09/12 13:08:44;;;;;;;10.15;9.27;;;;;;;;;;4994639;28;20025;-74
2023/09/12 13:11:10;;;;;;;10.05;9.15;;;;;;;;;;4985144;28;20038;-74
2023/09/12 13:13:37;;;;;;;10.75;9.73;;;;;;;;;;4991019;28;20060;-73
2023/09/12 13:16:12;;;;;;;10.82;9.93;;;;;;;;;;5000709;28;20034;-73
2023/09/12 13:18:38;;;;;;;10.93;9.93;;;;;;;;;;4995124;28;20037;-73
2023/09/12 13:21:05;;;;;;;18.63;10.15;;;;;;;;;;4995939;28;20032;-73
2023/09/12 13:23:30;;;;;;;10.35;9.32;;;;;;;;;;5008150;28;20042;-73
2023/09/12 13:25:56;;;;;;;10.40;9.50;;;;;;;;;;4997267;28;20745;-73
2023/09/12 13:28:26;;;;;;;11.18;10.18;;;;;;;;;;4992503;28;20036;-73
2023/09/12 13:30:52;;;;;;;10.25;9.30;;;;;;;;;;5000311;28;20517;-72
2023/09/12 13:33:18;;;;;;;12.00;10.18;;;;;;;;;;4995135;28;20030;-73
2023/09/12 13:35:44;;;;;;;10.75;9.85;;;;;;;;;;5001179;28;20041;-72
2023/09/12 13:38:10;;;;;;;10.75;9.35;;;;;;;;;;4997463;28;20057;-74
2023/09/12 13:40:39;;;;;;;10.40;9.40;;;;;;;;;;4987737;28;20033;-75
2023/09/12 13:43:08;;;;;;;10.65;9.65;;;;;;;;;;4995507;28;20120;-75
2023/09/12 13:45:34;;;;;;;12.07;9.90;;;;;;;;;;4993991;28;20133;-74
2023/09/12 13:48:01;;;;;;;12.00;9.90;;;;;;;;;;4992362;28;20033;-75
2023/09/12 13:50:30;;;;;;;10.70;9.63;;;;;;;;;;4998352;28;20053;-75
2023/09/12 13:53:00;;;;;;;11.13;9.73;;;;;;;;;;5000087;28;20034;-75
2023/09/12 13:55:26;;;;;;;10.48;9.63;;;;;;;;;;4998507;28;20037;-74
2023/09/12 13:57:51;;;;;;;10.88;9.35;;;;;;;;;;4992123;28;20034;-75
2023/09/12 14:00:17;;;;;;;10.90;9.32;;;;;;;;;;4999913;28;20043;-74
2023/09/12 14:02:44;;;;;;;11.93;9.82;;;;;;;;;;5002361;28;20079;-75
2023/09/12 14:05:11;;;;;;;11.65;9.98;;;;;;;;;;5000226;28;20034;-75
2023/09/12 14:07:38;;;;;;;10.87;9.77;;;;;;;;;;4991533;28;20030;-75
2023/09/12 14:10:04;;;;;;;11.43;9.50;;;;;;;;;;4998246;28;20087;-74
2023/09/12 14:12:29;;;;;;;11.38;9.55;;;;;;;;;;4998669;28;20042;-74
2023/09/12 14:14:55;;;;;;;12.70;9.23;;;;;;;;;;4996359;28;20048;-75
2023/09/12 14:17:20;;;;;;;10.02;9.23;;;;;;;;;;4994170;28;20517;-74
2023/09/12 14:19:46;;;;;;;10.90;9.85;;;;;;;;;;4997227;28;20548;-74
2023/09/12 14:22:12;;;;;;;13.88;9.57;;;;;;;;;;4996034;28;20042;-74